Madison Orca — A8UA7 — position and weather

sailwx.info

Track history (hours):
 
Tides and Currents Weather Stations Pressure Air Temp Water Temp Dewpoint Dewpoint Depression Visibility Wind Speed Wind Dir Waves Ship Positions

Madison Orca

Last reported at 2017-Nov-10 15:36 UTC. Time now 2017-Nov-22 05:43 UTC.
Position N 24°32' W 016°50'.
Warning: this ship's position is 11 days out of date.

Length 340 m; draft 22.2 m.

Type: Tanker. MMSI: 636014465.

Date/timePositionNaut miles runAvg speedWind from/ knotsBaromVisibWave heightAir tempDewpointWater temp
2017-Nov-10 15:36N 24°32' W 016°50'112.7
2017-Nov-10 15:29N 24°33' W 016°49'912.7
2017-Nov-10 14:49N 24°40' W 016°43'412.6
2017-Nov-10 14:30N 24°43' W 016°40'612.7
2017-Nov-10 14:00N 24°48' W 016°36'612.6
2017-Nov-10 13:30N 24°52' W 016°31'612.2
2017-Nov-10 13:00N 24°57' W 016°27'611.9
2017-Nov-10 12:30N 25°01' W 016°23'612.0
2017-Nov-10 11:58N 25°06' W 016°18'612.1
2017-Nov-10 11:30N 25°10' W 016°14'611.8
2017-Nov-10 10:58N 25°15' W 016°10'10112.2
2017-Nov-10 02:41N 26°32' W 014°57'311.9
2017-Nov-10 02:24N 26°35' W 014°55'611.8
2017-Nov-10 01:54N 26°40' W 014°51'511.9
2017-Nov-10 01:30N 26°43' W 014°47'612.1
2017-Nov-10 01:00N 26°48' W 014°43'612.3
2017-Nov-10 00:30N 26°52' W 014°38'712.1
2017-Nov-09 23:58N 26°57' W 014°34'512.0
2017-Nov-09 23:30N 27°02' W 014°30'611.8
2017-Nov-09 23:00N 27°06' W 014°26'611.9
2017-Nov-09 22:30N 27°11' W 014°21'612.1
2017-Nov-09 22:00N 27°15' W 014°17'612.4
2017-Nov-09 21:30N 27°20' W 014°13'613.0
2017-Nov-09 21:00N 27°25' W 014°08'612.9
2017-Nov-09 20:30N 27°30' W 014°03'612.9
2017-Nov-09 20:00N 27°35' W 013°58'612.6
2017-Nov-09 19:30N 27°40' W 013°54'612.5
2017-Nov-09 19:00N 27°44' W 013°49'712.3
2017-Nov-09 18:27N 27°49' W 013°44'712.1
2017-Nov-09 17:54N 27°55' W 013°39'1212.0
2017-Nov-09 16:55N 28°04' W 013°31'511.8
2017-Nov-09 16:30N 28°08' W 013°27'1211.8
2017-Nov-09 15:31N 28°17' W 013°20'012.4
2017-Nov-09 15:30N 28°17' W 013°20'712.5
2017-Nov-09 14:58N 28°23' W 013°16'612.6
2017-Nov-09 14:29N 28°28' W 013°12'612.5
2017-Nov-09 13:59N 28°33' W 013°08'612.4
2017-Nov-09 13:27N 28°39' W 013°04'712.1
2017-Nov-09 12:55N 28°44' W 013°00'612.4
2017-Nov-09 12:25N 28°49' W 012°56'612.3
2017-Nov-09 11:58N 28°54' W 012°53'812.2
2017-Nov-09 11:20N 29°01' W 012°48'612.3
2017-Nov-09 10:50N 29°06' W 012°44'812.3
2017-Nov-09 10:13N 29°12' W 012°39'412.2
2017-Nov-09 09:56N 29°15' W 012°37'3012.2
2017-Nov-09 07:27N 29°41' W 012°19'2612.4
2017-Nov-09 05:23N 30°02' W 012°02'8912.2
2017-Nov-08 22:04N 31°18' W 011°07'112.8
2017-Nov-08 21:59N 31°19' W 011°06'613.0
2017-Nov-08 21:30N 31°24' W 011°02'613.0
2017-Nov-08 21:00N 31°29' W 010°58'612.7
2017-Nov-08 20:30N 31°35' W 010°54'1412.7
2017-Nov-08 19:26N 31°46' W 010°45'612.1
2017-Nov-08 18:55N 31°51' W 010°41'512.2
2017-Nov-08 18:30N 31°55' W 010°38'612.2
2017-Nov-08 18:00N 32°00' W 010°33'9012.3
2017-Nov-08 10:44N 33°11' W 009°28'312.6
2017-Nov-08 10:30N 33°12' W 009°25'21212.6
2017-Nov-07 17:45N 35°38' W 006°19'312.8
2017-Nov-07 17:30N 35°40' W 006°16'713.0
2017-Nov-07 17:00N 35°45' W 006°10'612.7
2017-Nov-07 16:30N 35°49' W 006°05'612.2
2017-Nov-07 16:00N 35°54' W 006°01'510.5
2017-Nov-07 15:30N 35°57' W 005°55'812.8
2017-Nov-07 14:51N 35°57' W 005°45'513.2
2017-Nov-07 14:30N 35°57' W 005°39'612.3
2017-Nov-07 14:00N 35°59' W 005°32'611.2
2017-Nov-07 13:30N 36°00' W 005°25'510.3
2017-Nov-07 13:00N 36°01' W 005°19'510.4
2017-Nov-07 12:30N 36°03' W 005°13'511.0
2017-Nov-07 12:00N 36°05' W 005°07'611.6
2017-Nov-07 11:30N 36°06' W 004°60'611.3
2017-Nov-07 11:00N 36°07' W 004°53'510.8
2017-Nov-07 10:30N 36°08' W 004°46'510.2
2017-Nov-07 10:00N 36°09' W 004°40'510.4
2017-Nov-07 09:30N 36°09' W 004°33'711.2
2017-Nov-07 08:51N 36°10' W 004°24'411.3
2017-Nov-07 08:30N 36°10' W 004°20'611.3
2017-Nov-07 08:00N 36°10' W 004°13'611.2
2017-Nov-07 07:30N 36°10' W 004°06'  
2017-Nov-05 02:15N 37°49' E 008°45'24012.0
2017-Nov-04 06:16N 36°35' E 013°32'712.5
2017-Nov-04 05:41N 36°31' E 013°41'312.5
2017-Nov-04 05:27N 36°31' E 013°44'612.4
2017-Nov-04 05:00N 36°29' E 013°50'612.4
2017-Nov-04 04:30N 36°26' E 013°58'612.3
2017-Nov-04 04:00N 36°24' E 014°05'612.3
2017-Nov-04 03:30N 36°22' E 014°12'612.2
2017-Nov-04 03:00N 36°20' E 014°19'611.9
2017-Nov-04 02:30N 36°16' E 014°25'612.0
2017-Nov-04 02:00N 36°13' E 014°31'611.8
2017-Nov-04 01:30N 36°09' E 014°36'612.0
2017-Nov-04 01:00N 36°05' E 014°42'611.7
2017-Nov-04 00:30N 36°02' E 014°48'4 7.4
2017-Nov-04 00:01N 35°60' E 014°52'1 2.2
2017-Nov-03 23:31N 35°59' E 014°52'0 0.3
2017-Nov-03 22:59N 35°59' E 014°52'0 0.1
2017-Nov-03 22:23N 35°59' E 014°52'0 0.0
2017-Nov-03 21:53N 35°59' E 014°52'0 0.1
2017-Nov-03 21:29N 35°59' E 014°52'0 0.1
2017-Nov-03 20:59N 35°59' E 014°52'0 0.1
2017-Nov-03 20:29N 35°59' E 014°52'0 0.0
2017-Nov-03 19:59N 35°59' E 014°52'0 0.0
2017-Nov-03 19:26N 35°59' E 014°52'0 0.0
2017-Nov-03 18:56N 35°59' E 014°52'0 0.1
2017-Nov-03 18:29N 35°59' E 014°52'0 0.1
2017-Nov-03 17:53N 35°58' E 014°52'0 0.1
2017-Nov-03 17:26N 35°58' E 014°52'0 0.0
2017-Nov-03 16:59N 35°58' E 014°52'0 0.0
2017-Nov-03 16:17N 35°59' E 014°52'0 0.0
2017-Nov-03 15:59N 35°58' E 014°52'0 0.0
2017-Nov-03 15:26N 35°58' E 014°52'0 0.0
2017-Nov-03 14:59N 35°58' E 014°52'0 0.0
2017-Nov-03 14:29N 35°58' E 014°52'0 0.0
2017-Nov-03 13:59N 35°58' E 014°52'0 0.0
2017-Nov-03 13:29N 35°58' E 014°52'0 0.0
2017-Nov-03 12:56N 35°58' E 014°52'0 0.0
2017-Nov-03 12:26N 35°58' E 014°52'0 0.0
2017-Nov-03 11:59N 35°58' E 014°52'0 0.0
2017-Nov-03 11:26N 35°58' E 014°52'0 0.0
2017-Nov-03 10:56N 35°58' E 014°52'0 0.0
2017-Nov-03 10:29N 35°58' E 014°52'0 0.0
2017-Nov-03 09:56N 35°58' E 014°52'0 0.0
2017-Nov-03 09:05N 35°58' E 014°52'0 0.0
2017-Nov-03 08:59N 35°58' E 014°52'0 0.1
2017-Nov-03 08:23N 35°58' E 014°52'0 0.0
2017-Nov-03 07:59N 35°58' E 014°52'0 0.0
2017-Nov-03 07:29N 35°58' E 014°52'0 0.0
2017-Nov-03 06:56N 35°58' E 014°52'0 0.0
2017-Nov-03 06:26N 35°58' E 014°52'0 0.0
2017-Nov-03 05:53N 35°58' E 014°52'0 0.0
2017-Nov-03 05:29N 35°58' E 014°52'0 0.0
2017-Nov-03 04:59N 35°59' E 014°52'0 0.0
2017-Nov-03 04:29N 35°59' E 014°52'0 0.0
2017-Nov-03 03:59N 35°58' E 014°52'0 0.0
2017-Nov-03 03:23N 35°59' E 014°52'0 0.0
2017-Nov-03 02:59N 35°58' E 014°52'0 0.0
2017-Nov-03 02:20N 35°58' E 014°52'0 0.0
2017-Nov-03 01:59N 35°58' E 014°52'0 0.0
2017-Nov-03 01:29N 35°58' E 014°52'0 0.0
2017-Nov-03 00:56N 35°58' E 014°52'0 0.0
2017-Nov-03 00:23N 35°58' E 014°52'0 0.0
2017-Nov-02 23:56N 35°58' E 014°52'0 0.0
2017-Nov-02 22:17N 35°58' E 014°52'0 0.0
2017-Nov-02 21:53N 35°58' E 014°52'0 0.0
2017-Nov-02 21:26N 35°58' E 014°52'0 0.0
2017-Nov-02 20:38N 35°58' E 014°52'0 0.1
2017-Nov-02 20:29N 35°58' E 014°52'0 0.0
2017-Nov-02 19:59N 35°58' E 014°52'0 0.0
2017-Nov-02 19:17N 35°58' E 014°52'0 0.0
2017-Nov-02 18:50N 35°58' E 014°52'0 0.1
2017-Nov-02 18:29N 35°59' E 014°52'0 0.0
2017-Nov-02 17:53N 35°59' E 014°52'0 0.0
2017-Nov-02 17:26N 35°59' E 014°52'0 0.0
2017-Nov-02 16:56N 35°59' E 014°52'0 0.1
2017-Nov-02 16:29N 35°59' E 014°52'0 0.0
2017-Nov-02 15:53N 35°59' E 014°52'0 0.0
2017-Nov-02 15:29N 35°59' E 014°52'0 0.0
2017-Nov-02 14:56N 35°59' E 014°52'0 0.0
2017-Nov-02 14:29N 35°59' E 014°52'0 0.0
2017-Nov-02 13:59N 35°59' E 014°52'0 0.0
2017-Nov-02 13:23N 35°59' E 014°52'0 0.0
2017-Nov-02 12:59N 35°59' E 014°52'0 0.0
2017-Nov-02 12:29N 35°59' E 014°52'0 0.0
2017-Nov-02 11:59N 35°59' E 014°52'0 0.0
2017-Nov-02 11:29N 35°59' E 014°52'0 0.0
2017-Nov-02 10:59N 35°59' E 014°52'0 0.0
2017-Nov-02 10:29N 35°59' E 014°52'0 0.0
2017-Nov-02 09:35N 35°59' E 014°52'0 0.0
2017-Nov-02 09:26N 35°59' E 014°52'0 0.0
2017-Nov-02 08:59N 35°59' E 014°52'0 0.0
2017-Nov-02 08:29N 35°59' E 014°52'0 0.0
2017-Nov-02 07:56N 35°59' E 014°52'0 0.0
2017-Nov-02 07:26N 35°59' E 014°52'0 0.0
2017-Nov-02 06:59N 35°59' E 014°52'0 0.0
2017-Nov-02 06:29N 35°59' E 014°52'0 0.0
2017-Nov-02 05:59N 35°59' E 014°52'0 0.1
2017-Nov-02 05:29N 35°59' E 014°52'0 0.0
2017-Nov-02 03:38N 35°59' E 014°52'0 0.1
2017-Nov-02 03:26N 35°59' E 014°52'0 0.1
2017-Nov-02 02:59N 35°59' E 014°52'0 0.0
2017-Nov-02 02:29N 35°59' E 014°52'0 0.1
2017-Nov-02 01:59N 35°59' E 014°52'0 0.0
2017-Nov-02 01:29N 35°59' E 014°52'0 0.1
2017-Nov-02 00:53N 35°59' E 014°52'0 0.0
2017-Nov-02 00:23N 35°59' E 014°52'0 0.1
2017-Nov-01 23:59N 35°59' E 014°52'0 0.1
2017-Nov-01 23:26N 35°59' E 014°52'0 0.1
2017-Nov-01 22:56N 35°59' E 014°52'0 0.0
2017-Nov-01 22:29N 35°59' E 014°52'0 0.0
2017-Nov-01 21:56N 35°59' E 014°52'0 0.0
2017-Nov-01 21:29N 35°59' E 014°52'0 0.0
2017-Nov-01 20:53N 35°59' E 014°52'0 0.0
2017-Nov-01 20:29N 35°59' E 014°52'0 0.0
2017-Nov-01 19:53N 35°59' E 014°52'0 0.0
2017-Nov-01 19:29N 35°59' E 014°52'0 0.1
2017-Nov-01 18:59N 35°59' E 014°52'0 0.0
2017-Nov-01 18:23N 35°59' E 014°52'0 0.0
2017-Oct-31 23:26N 35°58' E 014°52'0 0.0
2017-Oct-31 22:53N 35°58' E 014°52'0 0.0
2017-Oct-31 22:29N 35°58' E 014°52'0 0.1
2017-Oct-31 21:59N 35°58' E 014°52'0 0.1
2017-Oct-31 21:29N 35°58' E 014°52'0 0.0
2017-Oct-31 20:59N 35°58' E 014°52'0 0.4
2017-Oct-31 20:23N 35°59' E 014°52'1 2.3
2017-Oct-31 20:00N 35°58' E 014°52'3 4.3
2017-Oct-31 19:25N 35°57' E 014°55'2 4.1
2017-Oct-31 18:59N 35°57' E 014°57'2 3.8
2017-Oct-31 18:29N 35°56' E 014°60'8 3.3
2017-Oct-31 16:04N 36°02' E 014°53'1 6.2
2017-Oct-31 15:58N 36°02' E 014°53'  
Track history (hours):
 
Tides and Currents Weather Stations Pressure Air Temp Water Temp Dewpoint Dewpoint Depression Visibility Wind Speed Wind Dir Waves Ship Positions

Madison Orca

Last reported at 2017-Nov-10 15:36 UTC. Time now 2017-Nov-22 05:43 UTC.
Position N 24°32' W 016°50'.
Warning: this ship's position is 11 days out of date.

Length 340 m; draft 22.2 m.

Type: Tanker. MMSI: 636014465.

Date/timePositionNaut miles runAvg speedWind from/ knotsBaromVisibWave heightAir tempDewpointWater temp
2017-Nov-10 15:36N 24°32' W 016°50'112.7
2017-Nov-10 15:29N 24°33' W 016°49'912.7
2017-Nov-10 14:49N 24°40' W 016°43'412.6
2017-Nov-10 14:30N 24°43' W 016°40'612.7
2017-Nov-10 14:00N 24°48' W 016°36'612.6
2017-Nov-10 13:30N 24°52' W 016°31'612.2
2017-Nov-10 13:00N 24°57' W 016°27'611.9
2017-Nov-10 12:30N 25°01' W 016°23'612.0
2017-Nov-10 11:58N 25°06' W 016°18'612.1
2017-Nov-10 11:30N 25°10' W 016°14'611.8
2017-Nov-10 10:58N 25°15' W 016°10'10112.2
2017-Nov-10 02:41N 26°32' W 014°57'311.9
2017-Nov-10 02:24N 26°35' W 014°55'611.8
2017-Nov-10 01:54N 26°40' W 014°51'511.9
2017-Nov-10 01:30N 26°43' W 014°47'612.1
2017-Nov-10 01:00N 26°48' W 014°43'612.3
2017-Nov-10 00:30N 26°52' W 014°38'712.1
2017-Nov-09 23:58N 26°57' W 014°34'512.0
2017-Nov-09 23:30N 27°02' W 014°30'611.8
2017-Nov-09 23:00N 27°06' W 014°26'611.9
2017-Nov-09 22:30N 27°11' W 014°21'612.1
2017-Nov-09 22:00N 27°15' W 014°17'612.4
2017-Nov-09 21:30N 27°20' W 014°13'613.0
2017-Nov-09 21:00N 27°25' W 014°08'612.9
2017-Nov-09 20:30N 27°30' W 014°03'612.9
2017-Nov-09 20:00N 27°35' W 013°58'612.6
2017-Nov-09 19:30N 27°40' W 013°54'612.5
2017-Nov-09 19:00N 27°44' W 013°49'712.3
2017-Nov-09 18:27N 27°49' W 013°44'712.1
2017-Nov-09 17:54N 27°55' W 013°39'1212.0
2017-Nov-09 16:55N 28°04' W 013°31'511.8
2017-Nov-09 16:30N 28°08' W 013°27'1211.8
2017-Nov-09 15:31N 28°17' W 013°20'012.4
2017-Nov-09 15:30N 28°17' W 013°20'712.5
2017-Nov-09 14:58N 28°23' W 013°16'612.6
2017-Nov-09 14:29N 28°28' W 013°12'612.5
2017-Nov-09 13:59N 28°33' W 013°08'612.4
2017-Nov-09 13:27N 28°39' W 013°04'712.1
2017-Nov-09 12:55N 28°44' W 013°00'612.4
2017-Nov-09 12:25N 28°49' W 012°56'612.3
2017-Nov-09 11:58N 28°54' W 012°53'812.2
2017-Nov-09 11:20N 29°01' W 012°48'612.3
2017-Nov-09 10:50N 29°06' W 012°44'812.3
2017-Nov-09 10:13N 29°12' W 012°39'412.2
2017-Nov-09 09:56N 29°15' W 012°37'3012.2
2017-Nov-09 07:27N 29°41' W 012°19'2612.4
2017-Nov-09 05:23N 30°02' W 012°02'8912.2
2017-Nov-08 22:04N 31°18' W 011°07'112.8
2017-Nov-08 21:59N 31°19' W 011°06'613.0
2017-Nov-08 21:30N 31°24' W 011°02'613.0
2017-Nov-08 21:00N 31°29' W 010°58'612.7
2017-Nov-08 20:30N 31°35' W 010°54'1412.7
2017-Nov-08 19:26N 31°46' W 010°45'612.1
2017-Nov-08 18:55N 31°51' W 010°41'512.2
2017-Nov-08 18:30N 31°55' W 010°38'612.2
2017-Nov-08 18:00N 32°00' W 010°33'9012.3
2017-Nov-08 10:44N 33°11' W 009°28'312.6
2017-Nov-08 10:30N 33°12' W 009°25'21212.6
2017-Nov-07 17:45N 35°38' W 006°19'312.8
2017-Nov-07 17:30N 35°40' W 006°16'713.0
2017-Nov-07 17:00N 35°45' W 006°10'612.7
2017-Nov-07 16:30N 35°49' W 006°05'612.2
2017-Nov-07 16:00N 35°54' W 006°01'510.5
2017-Nov-07 15:30N 35°57' W 005°55'812.8
2017-Nov-07 14:51N 35°57' W 005°45'513.2
2017-Nov-07 14:30N 35°57' W 005°39'612.3
2017-Nov-07 14:00N 35°59' W 005°32'611.2
2017-Nov-07 13:30N 36°00' W 005°25'510.3
2017-Nov-07 13:00N 36°01' W 005°19'510.4
2017-Nov-07 12:30N 36°03' W 005°13'511.0
2017-Nov-07 12:00N 36°05' W 005°07'611.6
2017-Nov-07 11:30N 36°06' W 004°60'611.3
2017-Nov-07 11:00N 36°07' W 004°53'510.8
2017-Nov-07 10:30N 36°08' W 004°46'510.2
2017-Nov-07 10:00N 36°09' W 004°40'510.4
2017-Nov-07 09:30N 36°09' W 004°33'711.2
2017-Nov-07 08:51N 36°10' W 004°24'411.3
2017-Nov-07 08:30N 36°10' W 004°20'611.3
2017-Nov-07 08:00N 36°10' W 004°13'611.2
2017-Nov-07 07:30N 36°10' W 004°06'  
2017-Nov-05 02:15N 37°49' E 008°45'24012.0
2017-Nov-04 06:16N 36°35' E 013°32'712.5
2017-Nov-04 05:41N 36°31' E 013°41'312.5
2017-Nov-04 05:27N 36°31' E 013°44'612.4
2017-Nov-04 05:00N 36°29' E 013°50'612.4
2017-Nov-04 04:30N 36°26' E 013°58'612.3
2017-Nov-04 04:00N 36°24' E 014°05'612.3
2017-Nov-04 03:30N 36°22' E 014°12'612.2
2017-Nov-04 03:00N 36°20' E 014°19'611.9
2017-Nov-04 02:30N 36°16' E 014°25'612.0
2017-Nov-04 02:00N 36°13' E 014°31'611.8
2017-Nov-04 01:30N 36°09' E 014°36'612.0
2017-Nov-04 01:00N 36°05' E 014°42'611.7
2017-Nov-04 00:30N 36°02' E 014°48'4 7.4
2017-Nov-04 00:01N 35°60' E 014°52'1 2.2
2017-Nov-03 23:31N 35°59' E 014°52'0 0.3
2017-Nov-03 22:59N 35°59' E 014°52'0 0.1
2017-Nov-03 22:23N 35°59' E 014°52'0 0.0
2017-Nov-03 21:53N 35°59' E 014°52'0 0.1
2017-Nov-03 21:29N 35°59' E 014°52'0 0.1
2017-Nov-03 20:59N 35°59' E 014°52'0 0.1
2017-Nov-03 20:29N 35°59' E 014°52'0 0.0
2017-Nov-03 19:59N 35°59' E 014°52'0 0.0
2017-Nov-03 19:26N 35°59' E 014°52'0 0.0
2017-Nov-03 18:56N 35°59' E 014°52'0 0.1
2017-Nov-03 18:29N 35°59' E 014°52'0 0.1
2017-Nov-03 17:53N 35°58' E 014°52'0 0.1
2017-Nov-03 17:26N 35°58' E 014°52'0 0.0
2017-Nov-03 16:59N 35°58' E 014°52'0 0.0
2017-Nov-03 16:17N 35°59' E 014°52'0 0.0
2017-Nov-03 15:59N 35°58' E 014°52'0 0.0
2017-Nov-03 15:26N 35°58' E 014°52'0 0.0
2017-Nov-03 14:59N 35°58' E 014°52'0 0.0
2017-Nov-03 14:29N 35°58' E 014°52'0 0.0
2017-Nov-03 13:59N 35°58' E 014°52'0 0.0
2017-Nov-03 13:29N 35°58' E 014°52'0 0.0
2017-Nov-03 12:56N 35°58' E 014°52'0 0.0
2017-Nov-03 12:26N 35°58' E 014°52'0 0.0
2017-Nov-03 11:59N 35°58' E 014°52'0 0.0
2017-Nov-03 11:26N 35°58' E 014°52'0 0.0
2017-Nov-03 10:56N 35°58' E 014°52'0 0.0
2017-Nov-03 10:29N 35°58' E 014°52'0 0.0
2017-Nov-03 09:56N 35°58' E 014°52'0 0.0
2017-Nov-03 09:05N 35°58' E 014°52'0 0.0
2017-Nov-03 08:59N 35°58' E 014°52'0 0.1
2017-Nov-03 08:23N 35°58' E 014°52'0 0.0
2017-Nov-03 07:59N 35°58' E 014°52'0 0.0
2017-Nov-03 07:29N 35°58' E 014°52'0 0.0
2017-Nov-03 06:56N 35°58' E 014°52'0 0.0
2017-Nov-03 06:26N 35°58' E 014°52'0 0.0
2017-Nov-03 05:53N 35°58' E 014°52'0 0.0
2017-Nov-03 05:29N 35°58' E 014°52'0 0.0
2017-Nov-03 04:59N 35°59' E 014°52'0 0.0
2017-Nov-03 04:29N 35°59' E 014°52'0 0.0
2017-Nov-03 03:59N 35°58' E 014°52'0 0.0
2017-Nov-03 03:23N 35°59' E 014°52'0 0.0
2017-Nov-03 02:59N 35°58' E 014°52'0 0.0
2017-Nov-03 02:20N 35°58' E 014°52'0 0.0
2017-Nov-03 01:59N 35°58' E 014°52'0 0.0
2017-Nov-03 01:29N 35°58' E 014°52'0 0.0
2017-Nov-03 00:56N 35°58' E 014°52'0 0.0
2017-Nov-03 00:23N 35°58' E 014°52'0 0.0
2017-Nov-02 23:56N 35°58' E 014°52'0 0.0
2017-Nov-02 22:17N 35°58' E 014°52'0 0.0
2017-Nov-02 21:53N 35°58' E 014°52'0 0.0
2017-Nov-02 21:26N 35°58' E 014°52'0 0.0
2017-Nov-02 20:38N 35°58' E 014°52'0 0.1
2017-Nov-02 20:29N 35°58' E 014°52'0 0.0
2017-Nov-02 19:59N 35°58' E 014°52'0 0.0
2017-Nov-02 19:17N 35°58' E 014°52'0 0.0
2017-Nov-02 18:50N 35°58' E 014°52'0 0.1
2017-Nov-02 18:29N 35°59' E 014°52'0 0.0
2017-Nov-02 17:53N 35°59' E 014°52'0 0.0
2017-Nov-02 17:26N 35°59' E 014°52'0 0.0
2017-Nov-02 16:56N 35°59' E 014°52'0 0.1
2017-Nov-02 16:29N 35°59' E 014°52'0 0.0
2017-Nov-02 15:53N 35°59' E 014°52'0 0.0
2017-Nov-02 15:29N 35°59' E 014°52'0 0.0
2017-Nov-02 14:56N 35°59' E 014°52'0 0.0
2017-Nov-02 14:29N 35°59' E 014°52'0 0.0
2017-Nov-02 13:59N 35°59' E 014°52'0 0.0
2017-Nov-02 13:23N 35°59' E 014°52'0 0.0
2017-Nov-02 12:59N 35°59' E 014°52'0 0.0
2017-Nov-02 12:29N 35°59' E 014°52'0 0.0
2017-Nov-02 11:59N 35°59' E 014°52'0 0.0
2017-Nov-02 11:29N 35°59' E 014°52'0 0.0
2017-Nov-02 10:59N 35°59' E 014°52'0 0.0
2017-Nov-02 10:29N 35°59' E 014°52'0 0.0
2017-Nov-02 09:35N 35°59' E 014°52'0 0.0
2017-Nov-02 09:26N 35°59' E 014°52'0 0.0
2017-Nov-02 08:59N 35°59' E 014°52'0 0.0
2017-Nov-02 08:29N 35°59' E 014°52'0 0.0
2017-Nov-02 07:56N 35°59' E 014°52'0 0.0
2017-Nov-02 07:26N 35°59' E 014°52'0 0.0
2017-Nov-02 06:59N 35°59' E 014°52'0 0.0
2017-Nov-02 06:29N 35°59' E 014°52'0 0.0
2017-Nov-02 05:59N 35°59' E 014°52'0 0.1
2017-Nov-02 05:29N 35°59' E 014°52'0 0.0
2017-Nov-02 03:38N 35°59' E 014°52'0 0.1
2017-Nov-02 03:26N 35°59' E 014°52'0 0.1
2017-Nov-02 02:59N 35°59' E 014°52'0 0.0
2017-Nov-02 02:29N 35°59' E 014°52'0 0.1
2017-Nov-02 01:59N 35°59' E 014°52'0 0.0
2017-Nov-02 01:29N 35°59' E 014°52'0 0.1
2017-Nov-02 00:53N 35°59' E 014°52'0 0.0
2017-Nov-02 00:23N 35°59' E 014°52'0 0.1
2017-Nov-01 23:59N 35°59' E 014°52'0 0.1
2017-Nov-01 23:26N 35°59' E 014°52'0 0.1
2017-Nov-01 22:56N 35°59' E 014°52'0 0.0
2017-Nov-01 22:29N 35°59' E 014°52'0 0.0
2017-Nov-01 21:56N 35°59' E 014°52'0 0.0
2017-Nov-01 21:29N 35°59' E 014°52'0 0.0
2017-Nov-01 20:53N 35°59' E 014°52'0 0.0
2017-Nov-01 20:29N 35°59' E 014°52'0 0.0
2017-Nov-01 19:53N 35°59' E 014°52'0 0.0
2017-Nov-01 19:29N 35°59' E 014°52'0 0.1
2017-Nov-01 18:59N 35°59' E 014°52'0 0.0
2017-Nov-01 18:23N 35°59' E 014°52'0 0.0
2017-Oct-31 23:26N 35°58' E 014°52'0 0.0
2017-Oct-31 22:53N 35°58' E 014°52'0 0.0
2017-Oct-31 22:29N 35°58' E 014°52'0 0.1
2017-Oct-31 21:59N 35°58' E 014°52'0 0.1
2017-Oct-31 21:29N 35°58' E 014°52'0 0.0
2017-Oct-31 20:59N 35°58' E 014°52'0 0.4
2017-Oct-31 20:23N 35°59' E 014°52'1 2.3
2017-Oct-31 20:00N 35°58' E 014°52'3 4.3
2017-Oct-31 19:25N 35°57' E 014°55'2 4.1
2017-Oct-31 18:59N 35°57' E 014°57'2 3.8
2017-Oct-31 18:29N 35°56' E 014°60'8 3.3
2017-Oct-31 16:04N 36°02' E 014°53'1 6.2
2017-Oct-31 15:58N 36°02' E 014°53'  

Dump ship's entire track history